createdAt,value
2022-09-16T00:00:53.666Z,5.25
2022-09-16T00:03:21.223Z,4.70
2022-09-16T00:05:51.345Z,6.20
2022-09-16T00:08:19.805Z,5.75
2022-09-16T00:10:48.850Z,5.93
2022-09-16T00:13:17.103Z,5.80
2022-09-16T00:15:51.148Z,5.68
2022-09-16T00:18:22.696Z,5.30
2022-09-16T00:20:52.024Z,5.90
2022-09-16T00:23:20.146Z,6.18
2022-09-16T00:25:56.454Z,6.50
2022-09-16T00:28:24.394Z,7.22
2022-09-16T00:30:51.892Z,7.07
2022-09-16T00:33:20.288Z,6.32
2022-09-16T00:35:48.094Z,6.45
2022-09-16T00:38:16.105Z,6.45
2022-09-16T00:40:48.822Z,6.63
2022-09-16T00:43:19.962Z,7.35
2022-09-16T00:46:03.175Z,7.82
2022-09-16T00:48:32.624Z,7.60
2022-09-16T00:51:06.562Z,7.78
2022-09-16T00:53:49.313Z,8.25
2022-09-16T00:56:21.464Z,8.38
2022-09-16T00:59:13.793Z,8.38
2022-09-16T01:01:44.885Z,8.88
2022-09-16T01:04:22.406Z,8.80
2022-09-16T01:06:50.973Z,9.38
2022-09-16T01:09:21.154Z,9.02
2022-09-16T01:11:48.657Z,9.45
2022-09-16T01:14:35.715Z,9.23
2022-09-16T01:17:29.456Z,9.70
2022-09-16T01:20:47.259Z,9.38
2022-09-16T01:23:52.103Z,9.60
2022-09-16T01:26:41.005Z,8.75
2022-09-16T01:29:46.631Z,9.32
2022-09-16T01:32:29.020Z,9.23
2022-09-16T01:38:02.096Z,8.68
2022-09-16T01:40:46.221Z,9.70
2022-09-16T01:43:32.208Z,9.32
2022-09-16T01:46:23.105Z,8.95
2022-09-16T01:48:59.015Z,8.20
2022-09-16T01:51:55.259Z,9.20
2022-09-16T01:54:45.758Z,9.77
2022-09-16T01:57:34.763Z,9.90
2022-09-16T02:00:14.399Z,10.30
2022-09-16T02:02:51.557Z,9.38
2022-09-16T02:05:36.895Z,9.57
2022-09-16T02:08:09.546Z,9.70
2022-09-16T02:10:45.251Z,8.70
2022-09-16T02:13:35.493Z,7.88
2022-09-16T02:16:08.264Z,8.93
2022-09-16T02:18:39.573Z,8.52
2022-09-16T02:21:11.447Z,9.25
2022-09-16T02:23:48.939Z,8.32
2022-09-16T02:26:20.987Z,8.98
2022-09-16T02:28:50.892Z,8.20
2022-09-16T02:31:24.929Z,8.50
2022-09-16T02:33:58.084Z,8.23
2022-09-16T02:36:28.027Z,9.38
2022-09-16T02:39:09.542Z,7.38
2022-09-16T02:41:39.580Z,8.18
2022-09-16T02:44:08.856Z,8.73
2022-09-16T02:46:57.507Z,7.65
2022-09-16T02:49:44.336Z,7.72
2022-09-16T02:52:20.578Z,7.80
2022-09-16T02:55:04.700Z,7.72
2022-09-16T02:57:32.576Z,7.40
2022-09-16T03:00:00.088Z,6.63
2022-09-16T03:02:27.648Z,7.53
2022-09-16T03:04:55.143Z,6.72
2022-09-16T03:07:22.578Z,7.32
2022-09-16T03:09:50.692Z,7.35
2022-09-16T03:12:22.531Z,6.28
2022-09-16T03:15:47.000Z,7.50
2022-09-16T03:18:19.939Z,6.78
2022-09-16T03:21:03.773Z,6.38
2022-09-16T03:23:53.404Z,6.35
2022-09-16T03:26:46.893Z,6.97
2022-09-16T03:29:35.399Z,7.53
2022-09-16T03:32:15.429Z,8.18
2022-09-16T03:34:48.676Z,6.90
2022-09-16T03:37:18.811Z,7.10
2022-09-16T03:39:56.011Z,7.45
2022-09-16T03:42:24.253Z,7.38
2022-09-16T03:44:51.907Z,7.35
2022-09-16T03:47:19.347Z,6.57
2022-09-16T03:49:46.730Z,7.22
2022-09-16T03:52:14.132Z,7.13
2022-09-16T03:54:41.605Z,7.25
2022-09-16T03:57:09.691Z,7.55
2022-09-16T03:59:37.063Z,7.47
2022-09-16T04:02:04.449Z,7.35
2022-09-16T04:04:31.824Z,8.07
2022-09-16T04:06:59.172Z,7.20
2022-09-16T04:09:26.534Z,8.38
2022-09-16T04:11:53.966Z,8.00
2022-09-16T04:14:21.442Z,7.72
2022-09-16T04:16:48.846Z,8.23
2022-09-16T04:19:16.257Z,8.07
2022-09-16T04:21:43.674Z,8.05
2022-09-16T04:24:13.403Z,8.70
2022-09-16T04:26:41.897Z,11.05
2022-09-16T04:29:09.293Z,9.85
2022-09-16T04:31:36.903Z,8.45
2022-09-16T04:34:05.017Z,9.02
2022-09-16T04:36:33.687Z,9.20
2022-09-16T04:39:01.021Z,8.25
2022-09-16T04:41:28.572Z,8.68
2022-09-16T04:43:57.808Z,7.47
2022-09-16T04:46:29.726Z,8.75
2022-09-16T04:48:57.412Z,7.55
2022-09-16T04:51:27.463Z,8.57
2022-09-16T04:53:57.282Z,8.32
2022-09-16T04:56:31.510Z,8.27
2022-09-16T04:59:04.313Z,8.15
2022-09-16T05:01:35.154Z,8.05
2022-09-16T05:04:04.324Z,8.25
2022-09-16T05:06:34.605Z,8.60
2022-09-16T05:09:02.799Z,8.75
2022-09-16T05:11:33.580Z,7.95
2022-09-16T05:14:03.039Z,7.22
2022-09-16T05:16:31.306Z,7.30
2022-09-16T05:19:00.646Z,9.13
2022-09-16T05:21:29.082Z,8.35
2022-09-16T05:24:01.007Z,7.60
2022-09-16T05:26:31.308Z,7.40
2022-09-16T05:29:03.892Z,7.15
2022-09-16T05:31:33.736Z,7.47
2022-09-16T05:34:04.158Z,7.60
2022-09-16T05:36:33.851Z,7.65
2022-09-16T05:39:22.183Z,6.05
2022-09-16T05:41:50.744Z,6.25
2022-09-16T05:44:18.221Z,7.40
2022-09-16T05:46:45.606Z,6.55
2022-09-16T05:49:13.070Z,6.72
2022-09-16T05:51:41.469Z,6.32
2022-09-16T05:54:08.930Z,6.68
2022-09-16T05:56:36.329Z,6.80
2022-09-16T05:59:04.019Z,7.13
2022-09-16T06:01:35.954Z,6.93
2022-09-16T06:04:05.857Z,6.93
2022-09-16T06:06:38.929Z,6.57
2022-09-16T06:09:12.186Z,6.43
2022-09-16T06:11:45.025Z,6.32
2022-09-16T06:14:13.525Z,6.57
2022-09-16T06:16:41.329Z,6.63
2022-09-16T06:19:13.651Z,6.03
2022-09-16T06:21:43.740Z,5.72
2022-09-16T06:24:13.249Z,5.57
2022-09-16T06:26:42.998Z,4.30
2022-09-16T06:29:11.520Z,4.30
2022-09-16T06:31:40.071Z,5.32
2022-09-16T06:34:08.864Z,4.80
2022-09-16T06:36:42.789Z,4.15
2022-09-16T06:39:13.760Z,4.00
2022-09-16T06:41:41.298Z,4.25
2022-09-16T06:44:08.866Z,4.05
2022-09-16T06:46:37.341Z,4.22
2022-09-16T06:49:06.508Z,4.22
2022-09-16T06:51:35.897Z,3.55
2022-09-16T06:54:06.369Z,3.60
2022-09-16T06:56:36.299Z,4.15
2022-09-16T06:59:04.117Z,3.55
2022-09-16T07:01:32.689Z,3.55
2022-09-16T07:04:03.650Z,3.67
2022-09-16T07:07:04.869Z,4.50
2022-09-16T07:09:20.374Z,3.65
2022-09-16T07:11:47.738Z,3.83
2022-09-16T07:14:15.180Z,5.18
2022-09-16T07:16:42.623Z,4.57
2022-09-16T07:19:10.945Z,5.25
2022-09-16T07:21:38.331Z,4.00
2022-09-16T07:24:05.882Z,4.20
2022-09-16T07:26:35.393Z,4.20
2022-09-16T07:29:05.032Z,4.50
2022-09-16T07:31:37.547Z,4.20
2022-09-16T07:34:07.174Z,4.00
2022-09-16T07:36:38.952Z,4.03
2022-09-16T07:39:06.790Z,4.32
2022-09-16T07:41:36.876Z,4.50
2022-09-16T07:44:05.798Z,4.60
2022-09-16T07:46:35.311Z,4.28
2022-09-16T07:49:05.077Z,4.70
2022-09-16T07:51:33.464Z,4.80
2022-09-16T07:54:04.265Z,4.68
2022-09-16T07:56:34.959Z,4.20
2022-09-16T07:59:04.684Z,4.20
2022-09-16T08:01:32.263Z,7.40
2022-09-16T08:04:00.871Z,4.63
2022-09-16T08:06:30.853Z,4.38
2022-09-16T08:09:10.041Z,5.32
2022-09-16T08:11:47.659Z,4.78
2022-09-16T08:14:15.073Z,4.65
2022-09-16T08:16:42.560Z,4.05
2022-09-16T08:19:09.988Z,5.18
2022-09-16T08:21:37.373Z,4.85
2022-09-16T08:24:05.007Z,4.75
2022-09-16T08:26:32.399Z,5.07
2022-09-16T08:29:15.354Z,4.80
2022-09-16T08:31:43.056Z,4.63
2022-09-16T08:34:10.424Z,4.43
2022-09-16T08:36:37.802Z,4.72
2022-09-16T08:39:05.199Z,5.00
2022-09-16T08:42:12.431Z,4.82
2022-09-16T08:44:51.916Z,6.05
2022-09-16T08:47:28.631Z,5.00
2022-09-16T08:49:58.939Z,4.95
2022-09-16T08:52:40.973Z,5.40
2022-09-16T08:55:23.951Z,4.78
2022-09-16T08:58:10.748Z,4.00
2022-09-16T09:00:39.647Z,4.63
2022-09-16T09:03:28.568Z,4.72
2022-09-16T09:05:58.722Z,4.95
2022-09-16T09:08:44.039Z,4.93
2022-09-16T09:11:38.963Z,4.28
2022-09-16T09:14:16.857Z,4.80
2022-09-16T09:17:05.279Z,4.82
2022-09-16T09:19:57.910Z,5.40
2022-09-16T09:22:48.555Z,4.80
2022-09-16T09:25:22.020Z,4.35
2022-09-16T09:28:16.774Z,5.22
2022-09-16T09:31:11.056Z,5.55
2022-09-16T09:33:50.422Z,5.07
2022-09-16T09:36:41.758Z,5.70
2022-09-16T09:39:24.463Z,5.47
2022-09-16T09:42:00.524Z,4.88
2022-09-16T09:44:47.372Z,4.50
2022-09-16T09:47:43.173Z,5.20
2022-09-16T09:50:29.067Z,5.38
2022-09-16T09:53:11.808Z,5.15
2022-09-16T09:55:41.219Z,5.75
2022-09-16T09:58:21.809Z,5.03
2022-09-16T10:00:49.838Z,5.82
2022-09-16T10:03:18.512Z,5.97
2022-09-16T10:05:47.541Z,5.65
2022-09-16T10:08:20.737Z,5.05
2022-09-16T10:10:52.641Z,4.97
2022-09-16T10:13:21.291Z,5.57
2022-09-16T10:15:53.287Z,5.22
2022-09-16T10:18:32.489Z,5.30
2022-09-16T10:21:07.874Z,5.07
2022-09-16T10:23:36.415Z,5.72
2022-09-16T10:26:24.589Z,5.30
2022-09-16T10:28:55.902Z,4.63
2022-09-16T10:31:29.168Z,5.53
2022-09-16T10:34:01.179Z,4.88
2022-09-16T10:36:32.658Z,4.85
2022-09-16T10:39:05.168Z,4.80
2022-09-16T10:41:34.324Z,4.63
2022-09-16T10:44:17.825Z,5.40
2022-09-16T10:47:06.779Z,4.13
2022-09-16T10:50:02.133Z,4.70
2022-09-16T10:52:44.028Z,4.60
2022-09-16T10:55:23.450Z,4.40
2022-09-16T10:57:51.426Z,4.13
2022-09-16T11:00:23.288Z,4.13
2022-09-16T11:03:25.313Z,4.18
2022-09-16T11:05:55.531Z,4.20
2022-09-16T11:09:00.527Z,4.15
2022-09-16T11:11:43.778Z,4.18
2022-09-16T11:14:20.250Z,3.72
2022-09-16T11:17:13.941Z,3.60
2022-09-16T11:20:02.719Z,3.38
2022-09-16T11:22:42.170Z,3.92
2022-09-16T11:25:39.347Z,3.85
2022-09-16T11:28:24.668Z,3.63
2022-09-16T11:31:29.787Z,3.90
2022-09-16T11:34:08.165Z,3.10
2022-09-16T11:36:52.331Z,4.10
2022-09-16T11:39:45.654Z,4.07
2022-09-16T11:42:32.121Z,3.85
2022-09-16T11:45:24.380Z,4.28
2022-09-16T11:47:54.829Z,3.50
2022-09-16T11:50:49.537Z,3.60
2022-09-16T11:53:43.752Z,4.22
2022-09-16T11:56:27.110Z,3.50
2022-09-16T11:59:00.258Z,3.65
2022-09-16T12:01:48.793Z,3.75
2022-09-16T12:04:48.781Z,4.15
2022-09-16T12:08:09.494Z,3.75
2022-09-16T12:10:39.937Z,4.32
2022-09-16T12:13:15.393Z,3.47
2022-09-16T12:15:51.828Z,4.43
2022-09-16T12:18:43.070Z,3.92
2022-09-16T12:21:36.064Z,3.78
2022-09-16T12:24:16.446Z,3.95
2022-09-16T12:27:07.413Z,4.15
2022-09-16T12:29:52.125Z,3.28
2022-09-16T12:32:22.281Z,2.90
2022-09-16T12:35:02.067Z,3.80
2022-09-16T12:37:42.522Z,3.63
2022-09-16T12:40:23.524Z,4.13
2022-09-16T12:43:01.292Z,3.90
2022-09-16T12:46:02.772Z,3.42
2022-09-16T12:49:05.747Z,3.58
2022-09-16T12:51:33.140Z,3.72
2022-09-16T12:54:15.563Z,4.43
2022-09-16T12:57:10.890Z,4.05
2022-09-16T13:00:02.820Z,3.33
2022-09-16T13:02:41.231Z,3.30
2022-09-16T13:05:33.883Z,3.65
2022-09-16T13:08:05.104Z,4.50
2022-09-16T13:10:53.777Z,3.37
2022-09-16T13:13:34.452Z,3.85
2022-09-16T13:16:05.089Z,3.90
2022-09-16T13:18:43.821Z,4.25
2022-09-16T13:21:20.360Z,3.90
2022-09-16T13:23:57.403Z,3.92
2022-09-16T13:26:24.816Z,3.88
2022-09-16T13:28:52.413Z,4.22
2022-09-16T13:31:34.044Z,3.47
2022-09-16T13:34:03.887Z,3.38
2022-09-16T13:36:33.452Z,3.90
2022-09-16T13:39:04.102Z,4.15
2022-09-16T13:41:33.456Z,4.10
2022-09-16T13:44:02.023Z,3.55
2022-09-16T13:46:38.005Z,4.97
2022-09-16T13:49:11.876Z,4.13
2022-09-16T13:51:45.048Z,3.88
2022-09-16T13:54:53.569Z,4.18
2022-09-16T13:57:43.397Z,3.38
2022-09-16T14:00:15.650Z,3.50
2022-09-16T14:03:06.210Z,3.83
2022-09-16T14:05:45.704Z,4.57
2022-09-16T14:08:32.563Z,4.15
2022-09-16T14:11:31.678Z,3.50
2022-09-16T14:14:36.239Z,3.72
2022-09-16T14:17:05.268Z,3.42
2022-09-16T14:19:38.556Z,3.00
2022-09-16T14:22:10.567Z,3.55
2022-09-16T14:24:42.626Z,2.97
2022-09-16T14:27:22.081Z,3.47
2022-09-16T14:30:00.383Z,3.58
2022-09-16T14:32:31.896Z,3.55
2022-09-16T14:35:24.279Z,3.63
2022-09-16T14:37:55.980Z,4.45
2022-09-16T14:40:26.420Z,3.88
2022-09-16T14:43:01.642Z,3.40
2022-09-16T14:45:31.383Z,3.80
2022-09-16T14:48:02.291Z,3.65
2022-09-16T14:50:33.297Z,3.13
2022-09-16T14:53:03.447Z,3.50
2022-09-16T14:55:37.653Z,3.35
2022-09-16T14:58:05.155Z,3.58
2022-09-16T15:00:59.073Z,2.80
2022-09-16T15:03:42.726Z,3.10
2022-09-16T15:06:14.914Z,3.03
2022-09-16T15:09:06.214Z,3.63
2022-09-16T15:11:48.045Z,3.55
2022-09-16T15:14:17.917Z,3.28
2022-09-16T15:16:56.061Z,3.40
2022-09-16T15:19:32.905Z,3.15
2022-09-16T15:22:00.643Z,3.40
2022-09-16T15:24:31.255Z,3.10
2022-09-16T15:27:00.086Z,2.90
2022-09-16T15:29:35.159Z,3.80
2022-09-16T15:32:21.058Z,3.30
2022-09-16T15:34:49.734Z,3.50
2022-09-16T15:37:32.034Z,3.53
2022-09-16T15:42:37.788Z,3.40
2022-09-16T15:45:17.769Z,3.10
2022-09-16T15:47:56.903Z,3.75
2022-09-16T15:50:27.792Z,3.78
2022-09-16T15:53:30.387Z,3.28
2022-09-16T15:58:53.370Z,3.10
2022-09-16T16:01:49.738Z,3.30
2022-09-16T16:04:29.694Z,3.78
2022-09-16T16:07:00.868Z,3.15
2022-09-16T16:09:29.352Z,3.00
2022-09-16T16:11:58.852Z,3.17
2022-09-16T16:14:34.373Z,5.65
2022-09-16T16:17:14.611Z,4.00
2022-09-16T16:19:47.183Z,3.65
2022-09-16T16:22:15.521Z,3.92
2022-09-16T16:24:42.932Z,3.92
2022-09-16T16:27:10.774Z,4.07
2022-09-16T16:29:39.110Z,3.72
2022-09-16T16:32:12.938Z,4.32
2022-09-16T16:34:42.878Z,3.70
2022-09-16T16:37:27.909Z,4.22
2022-09-16T16:40:00.740Z,4.22
2022-09-16T16:42:28.868Z,4.40
2022-09-16T16:44:59.417Z,4.60
2022-09-16T16:47:26.816Z,4.43
2022-09-16T16:49:54.218Z,4.22
2022-09-16T16:52:21.643Z,4.30
2022-09-16T16:54:49.038Z,4.38
2022-09-16T16:57:16.595Z,4.28
2022-09-16T16:59:43.967Z,4.50
2022-09-16T17:02:12.052Z,4.63
2022-09-16T17:04:39.536Z,4.72
2022-09-16T17:07:26.099Z,4.05
2022-09-16T17:09:54.725Z,4.68
2022-09-16T17:12:22.182Z,4.60
2022-09-16T17:14:49.543Z,4.75
2022-09-16T17:17:16.957Z,4.70
2022-09-16T17:19:44.305Z,4.43
2022-09-16T17:22:11.754Z,5.28
2022-09-16T17:24:39.235Z,4.50
2022-09-16T17:27:06.738Z,4.50
2022-09-16T17:29:34.493Z,4.53
2022-09-16T17:32:03.191Z,4.93
2022-09-16T17:34:31.243Z,4.70
2022-09-16T17:36:58.861Z,5.00
2022-09-16T17:39:26.646Z,4.80
2022-09-16T17:41:56.571Z,5.43
2022-09-16T17:44:24.671Z,5.70
2022-09-16T17:46:52.068Z,5.20
2022-09-16T17:49:21.790Z,5.00
2022-09-16T17:51:50.903Z,4.60
2022-09-16T17:54:18.325Z,4.82
2022-09-16T17:56:46.610Z,5.28
2022-09-16T17:59:16.921Z,5.18
2022-09-16T18:01:44.488Z,4.88
2022-09-16T18:04:12.544Z,5.18
2022-09-16T18:06:45.149Z,4.65
2022-09-16T18:09:13.599Z,5.47
2022-09-16T18:11:41.245Z,5.25
2022-09-16T18:14:12.078Z,5.55
2022-09-16T18:16:40.125Z,5.68
2022-09-16T18:19:08.616Z,4.72
2022-09-16T18:21:38.124Z,5.20
2022-09-16T18:24:10.944Z,5.38
2022-09-16T18:26:39.575Z,5.53
2022-09-16T18:29:11.239Z,5.43
2022-09-16T18:31:41.572Z,5.18
2022-09-16T18:34:09.334Z,7.47
2022-09-16T18:36:37.676Z,6.53
2022-09-16T18:39:07.022Z,6.45
2022-09-16T18:41:39.539Z,6.32
2022-09-16T18:44:15.672Z,6.53
2022-09-16T18:46:43.577Z,6.28
2022-09-16T18:49:13.484Z,7.95
2022-09-16T18:51:50.813Z,7.70
2022-09-16T18:54:24.579Z,8.05
2022-09-16T18:56:55.927Z,7.60
2022-09-16T18:59:26.918Z,7.78
2022-09-16T19:01:57.450Z,7.80
2022-09-16T19:04:28.120Z,8.55
2022-09-16T19:06:59.268Z,9.25
2022-09-16T19:09:26.762Z,8.50
2022-09-16T19:11:54.634Z,8.80
2022-09-16T19:14:24.908Z,8.57
2022-09-16T19:16:53.180Z,8.93
2022-09-16T19:19:21.813Z,9.18
2022-09-16T19:21:49.419Z,7.97
2022-09-16T19:24:19.509Z,7.70
2022-09-16T19:26:48.193Z,7.43
2022-09-16T19:29:16.552Z,7.75
2022-09-16T19:31:46.583Z,7.00
2022-09-16T19:34:15.464Z,7.03
2022-09-16T19:36:43.757Z,6.78
2022-09-16T19:39:12.318Z,6.45
2022-09-16T19:41:41.471Z,6.93
2022-09-16T19:44:12.940Z,6.35
2022-09-16T19:46:42.684Z,6.38
2022-09-16T19:49:16.095Z,6.60
2022-09-16T19:51:44.028Z,6.55
2022-09-16T19:54:11.658Z,6.93
2022-09-16T19:56:39.230Z,7.47
2022-09-16T19:59:07.461Z,7.40
2022-09-16T20:01:36.176Z,8.18
2022-09-16T20:04:06.662Z,7.72
2022-09-16T20:06:39.886Z,8.55
2022-09-16T20:09:13.348Z,7.75
2022-09-16T20:11:42.911Z,7.22
2022-09-16T20:14:33.884Z,7.40
2022-09-16T20:17:01.293Z,6.63
2022-09-16T20:19:29.135Z,5.65
2022-09-16T20:21:56.716Z,4.03
2022-09-16T20:24:24.920Z,3.97
2022-09-16T20:26:54.324Z,3.35
2022-09-16T20:29:21.897Z,2.67
2022-09-16T20:31:52.241Z,2.53
2022-09-16T20:34:22.962Z,2.80
2022-09-16T20:36:50.780Z,3.20
2022-09-16T20:39:18.577Z,2.72
2022-09-16T20:41:49.732Z,3.15
2022-09-16T20:44:17.200Z,2.50
2022-09-16T20:46:44.624Z,2.30
2022-09-16T20:49:15.821Z,2.22
2022-09-16T20:51:43.845Z,2.20
2022-09-16T20:54:14.298Z,2.22
2022-09-16T20:56:44.103Z,2.83
2022-09-16T20:59:13.334Z,2.20
2022-09-16T21:01:41.637Z,2.90
2022-09-16T21:04:13.860Z,2.70
2022-09-16T21:09:12.093Z,2.45
2022-09-16T21:11:45.022Z,2.47
2022-09-16T21:14:15.981Z,2.55
2022-09-16T21:16:45.804Z,2.40
2022-09-16T21:19:14.131Z,2.50
2022-09-16T21:21:47.750Z,2.67
2022-09-16T21:24:16.367Z,2.67
2022-09-16T21:26:44.188Z,2.55
2022-09-16T21:29:20.248Z,2.35
2022-09-16T21:31:48.874Z,2.15
2022-09-16T21:34:18.381Z,2.83
2022-09-16T21:36:46.192Z,2.60
2022-09-16T21:39:14.902Z,2.53
2022-09-16T21:41:43.307Z,2.70
2022-09-16T21:44:11.790Z,2.53
2022-09-16T21:46:43.078Z,3.28
2022-09-16T21:49:22.441Z,2.90
2022-09-16T21:54:36.688Z,2.40
2022-09-16T21:57:04.193Z,2.40
2022-09-16T21:59:31.541Z,2.58
2022-09-16T22:02:03.546Z,1.70
2022-09-16T22:04:31.346Z,1.83
2022-09-16T22:06:58.781Z,1.80
2022-09-16T22:09:26.136Z,1.80
2022-09-16T22:11:53.685Z,1.77
2022-09-16T22:14:21.114Z,1.52
2022-09-16T22:16:48.442Z,1.80
2022-09-16T22:19:19.439Z,1.63
2022-09-16T22:21:49.196Z,1.65
2022-09-16T22:24:20.171Z,1.83
2022-09-16T22:26:49.534Z,1.40
2022-09-16T22:29:17.257Z,1.50
2022-09-16T22:31:44.679Z,1.80
2022-09-16T22:34:12.108Z,1.73
2022-09-16T22:36:39.963Z,1.70
2022-09-16T22:39:15.471Z,1.63
2022-09-16T22:41:43.118Z,1.70
2022-09-16T22:44:10.630Z,1.50
2022-09-16T22:46:46.456Z,1.52
2022-09-16T22:49:15.053Z,0.68
2022-09-16T22:51:43.149Z,1.52
2022-09-16T22:54:12.424Z,0.80
2022-09-16T22:56:39.958Z,0.88
2022-09-16T22:59:08.417Z,0.70
2022-09-16T23:01:39.058Z,1.05
2022-09-16T23:04:08.417Z,0.60
2022-09-16T23:06:37.514Z,0.60
2022-09-16T23:09:06.478Z,0.55
2022-09-16T23:11:35.505Z,0.70
2022-09-16T23:14:04.192Z,0.80
2022-09-16T23:16:36.336Z,0.57
2022-09-16T23:19:07.143Z,0.20
2022-09-16T23:21:34.589Z,0.30
2022-09-16T23:24:04.528Z,0.30
2022-09-16T23:26:37.532Z,0.30
2022-09-16T23:29:08.141Z,0.35
2022-09-16T23:31:40.380Z,0.20
2022-09-16T23:36:37.959Z,0.57
2022-09-16T23:39:07.044Z,0.57
2022-09-16T23:41:35.270Z,0.30
2022-09-16T23:44:02.693Z,0.52
2022-09-16T23:46:31.155Z,0.50
2022-09-16T23:48:59.309Z,0.60
2022-09-16T23:51:28.754Z,0.75
2022-09-16T23:53:57.611Z,1.42
2022-09-16T23:56:25.569Z,0.55
2022-09-16T23:58:53.689Z,0.55
